Time;durP1;ratioP1;P1;durP2;ratioP2;P2;SDS_P1;SDS_P2;PMS_P1;PMS_P2;Temp;Humidity;BMP_temperature;BMP_pressure;BME280_temperature;BME280_humidity;BME280_pressure;Samples;Min_cycle;Max_cycle;Signal;HPM_P1;HPM_P2
2022/01/02 00:00:41;;;;;;;3.30;3.00;;;14.60;75.90;;;17.00;57.33;101634.03;4860927;29;20228;-64
2022/01/02 00:03:37;;;;;;;4.93;3.27;;;14.50;75.90;;;16.97;57.63;101629.13;4860662;29;20268;-64
2022/01/02 00:06:26;;;;;;;5.73;3.57;;;14.60;76.00;;;16.97;57.46;101629.13;4860500;29;20215;-62
2022/01/02 00:09:24;;;;;;;4.03;3.00;;;14.50;75.90;;;16.94;57.55;101618.88;4861074;29;20304;-64
2022/01/02 00:12:15;;;;;;;3.93;3.53;;;14.50;76.00;;;16.93;57.65;101618.03;4860343;29;20227;-64
2022/01/02 00:15:06;;;;;;;4.30;3.03;;;14.50;76.00;;;16.96;57.60;101598.22;4861014;29;20219;-64
2022/01/02 00:17:54;;;;;;;4.27;3.00;;;14.50;76.00;;;16.96;57.62;101563.63;4861068;29;20606;-64
2022/01/02 00:20:47;;;;;;;5.10;3.80;;;14.50;76.70;;;16.94;57.56;101565.69;4860816;29;20212;-64
2022/01/02 00:23:48;;;;;;;4.27;3.57;;;14.50;76.00;;;16.92;57.55;101571.16;4859635;29;20587;-64
2022/01/02 00:26:36;;;;;;;4.13;3.20;;;14.50;76.00;;;16.91;57.53;101558.91;4860833;29;20214;-64
2022/01/02 00:29:22;;;;;;;3.77;3.17;;;14.50;76.00;;;16.93;57.83;101550.72;4860413;29;20211;-62
2022/01/02 00:32:11;;;;;;;3.93;3.13;;;14.50;76.00;;;16.96;57.66;101553.00;4860777;29;20225;-64
2022/01/02 00:34:59;;;;;;;4.67;3.50;;;14.50;76.20;;;16.99;57.72;101568.56;4861630;29;20300;-63
2022/01/02 00:37:45;;;;;;;6.27;3.67;;;14.50;76.20;;;17.00;57.39;101554.25;4860746;29;20686;-64
2022/01/02 00:40:41;;;;;;;5.20;3.60;;;14.50;76.20;;;16.97;57.43;101538.69;4860776;29;20211;-64
2022/01/02 00:43:39;;;;;;;4.10;3.10;;;14.50;76.00;;;16.96;57.56;101539.69;4863752;29;20223;-62
2022/01/02 00:46:27;;;;;;;4.03;3.60;;;14.50;76.00;;;16.99;57.51;101547.28;4863681;29;20624;-65
2022/01/02 00:49:24;;;;;;;3.33;3.00;;;14.50;76.00;;;16.99;57.16;101531.34;4864164;29;20232;-63
2022/01/02 00:52:16;;;;;;;4.10;3.33;;;14.50;76.00;;;16.98;57.20;101512.91;4863770;29;20308;-64
2022/01/02 00:55:05;;;;;;;3.60;3.20;;;14.50;75.90;;;16.98;57.32;101521.69;4863424;29;20264;-63
2022/01/02 00:57:58;;;;;;;4.10;3.40;;;14.50;75.90;;;16.98;57.32;101529.69;4863589;29;20659;-63
2022/01/02 01:00:49;;;;;;;4.60;3.50;;;14.50;75.90;;;17.00;57.30;101524.97;4863367;29;20212;-63
2022/01/02 01:03:40;;;;;;;3.87;3.50;;;14.50;75.90;;;17.01;57.23;101518.66;4844411;29;20698;-63
2022/01/02 01:06:30;;;;;;;3.67;3.10;;;14.50;75.80;;;17.01;57.06;101518.66;4845055;29;20204;-63
2022/01/02 01:09:21;;;;;;;3.13;2.83;;;14.50;75.80;;;17.05;57.29;101514.56;4844630;29;20209;-65
2022/01/02 01:12:10;;;;;;;4.43;3.23;;;14.50;75.90;;;17.05;57.22;101524.38;4858227;29;20220;-65
2022/01/02 01:14:57;;;;;;;4.53;3.27;;;14.50;75.80;;;17.08;57.28;101535.47;4862981;29;20219;-63
2022/01/02 01:17:45;;;;;;;4.33;3.60;;;14.50;75.90;;;17.10;57.05;101554.72;4863021;29;20291;-62
2022/01/02 01:20:36;;;;;;;5.40;3.30;;;14.50;76.00;;;17.10;57.22;101556.53;4863303;29;20208;-63
2022/01/02 01:23:22;;;;;;;3.87;3.10;;;14.50;76.60;;;17.15;57.09;101572.75;4862873;29;20243;-63
2022/01/02 01:26:09;;;;;;;3.83;3.33;;;14.60;76.10;;;17.22;56.92;101569.09;4863094;29;20215;-63
2022/01/02 01:28:55;;;;;;;4.23;3.60;;;14.60;76.10;;;17.27;57.04;101572.00;4862550;29;20223;-63
2022/01/02 01:31:42;;;;;;;3.97;3.33;;;14.60;76.10;;;17.29;56.83;101553.16;4862998;29;20220;-63
2022/01/02 01:34:28;;;;;;;3.47;2.90;;;14.60;76.10;;;17.27;56.96;101529.41;4862037;29;20235;-63
2022/01/02 01:37:14;;;;;;;4.80;3.60;;;14.60;76.10;;;17.23;57.26;101501.56;4862990;29;20215;-63
2022/01/02 01:40:00;;;;;;;4.57;4.00;;;14.60;76.10;;;17.16;57.37;101490.09;4862748;29;20559;-63
2022/01/02 01:42:57;;;;;;;5.43;4.13;;;14.70;76.20;;;17.10;57.70;101485.53;4862389;29;20207;-63
2022/01/02 01:45:43;;;;;;;6.30;4.43;;;14.70;76.50;;;17.02;57.90;101483.03;4862231;29;20270;-63
2022/01/02 01:48:31;;;;;;;4.47;3.60;;;14.60;76.50;;;17.00;57.97;101495.72;4862799;29;20642;-63
2022/01/02 01:51:17;;;;;;;6.00;3.87;;;14.60;76.60;;;16.99;58.36;101503.91;4862221;29;20308;-63
2022/01/02 01:54:03;;;;;;;4.87;3.60;;;14.60;76.80;;;16.99;58.32;101502.06;4861071;29;20251;-63
2022/01/02 01:56:51;;;;;;;4.53;3.50;;;14.60;77.00;;;16.94;58.70;101507.16;4862783;29;20233;-63
2022/01/02 01:59:37;;;;;;;6.00;3.77;;;14.50;77.20;;;16.90;58.79;101511.25;4862161;29;20203;-63
2022/01/02 02:02:23;;;;;;;4.60;3.70;;;14.50;77.30;;;16.94;59.05;101509.81;4861849;29;20211;-63
2022/01/02 02:05:12;;;;;;;4.00;3.60;;;14.50;77.70;;;17.00;58.57;101509.03;4861849;29;20207;-62
2022/01/02 02:07:58;;;;;;;5.07;4.00;;;14.50;77.80;;;17.04;58.40;101512.94;4862273;29;20253;-63
2022/01/02 02:10:51;;;;;;;5.33;3.87;;;14.50;77.90;;;17.09;58.36;101510.50;4862289;29;20211;-63
2022/01/02 02:13:39;;;;;;;4.30;3.67;;;14.40;78.10;;;17.10;58.46;101500.69;4861545;29;20259;-63
2022/01/02 02:16:27;;;;;;;5.00;3.60;;;14.40;78.10;;;17.07;58.56;101485.94;4862000;29;20235;-63
2022/01/02 02:19:13;;;;;;;5.13;3.83;;;14.50;78.40;;;17.03;58.84;101490.00;4861512;29;20260;-63
2022/01/02 02:22:00;;;;;;;5.43;4.93;;;14.40;78.20;;;16.95;59.20;101495.50;4862069;29;20280;-63
2022/01/02 02:24:45;;;;;;;4.27;3.87;;;14.40;78.60;;;16.84;59.58;101496.06;4861558;29;20657;-63
2022/01/02 02:27:31;;;;;;;6.20;4.20;;;14.40;78.50;;;16.75;60.12;101482.13;4862486;29;20674;-63
2022/01/02 02:30:18;;;;;;;7.83;4.37;;;14.40;79.00;;;16.63;60.51;101457.09;4861983;29;20352;-63
2022/01/02 02:33:07;;;;;;;5.83;4.60;;;14.30;79.20;;;16.52;60.95;101452.31;4860814;29;20586;-63
2022/01/02 02:35:54;;;;;;;6.33;4.40;;;14.30;79.60;;;16.43;61.30;101465.91;4861554;29;20300;-63
2022/01/02 02:38:41;;;;;;;5.70;4.30;;;14.20;80.80;;;16.34;61.48;101451.97;4862003;29;20730;-64
2022/01/02 02:41:32;;;;;;;5.17;4.10;;;14.10;80.20;;;16.28;61.90;101447.44;4861702;29;20317;-63
2022/01/02 02:44:35;;;;;;;9.20;4.90;;;14.10;80.40;;;16.24;62.17;101441.69;4861341;29;20762;-62
2022/01/02 02:50:25;;;;;;;6.60;4.90;;;14.00;81.00;;;16.16;62.45;101439.16;4861453;29;20203;-63
2022/01/02 02:53:11;;;;;;;4.13;3.70;;;14.00;81.50;;;16.18;62.57;101436.34;4860004;29;20251;-63
2022/01/02 02:55:59;;;;;;;4.90;4.33;;;13.90;81.40;;;16.19;62.37;101430.81;4861873;29;20244;-63
2022/01/02 02:58:49;;;;;;;6.17;4.77;;;13.90;81.70;;;16.20;62.36;101429.00;4861779;29;20669;-64
2022/01/02 03:01:35;;;;;;;6.10;4.80;;;13.90;81.80;;;16.14;62.97;101427.91;4861619;29;20220;-63
2022/01/02 03:04:23;;;;;;;5.77;3.90;;;13.90;82.20;;;16.15;62.88;101426.91;4860777;29;20223;-63
2022/01/02 03:07:09;;;;;;;7.80;4.20;;;13.90;82.00;;;16.21;62.36;101426.13;4861329;29;20228;-63
2022/01/02 03:09:58;;;;;;;5.13;4.20;;;13.90;82.10;;;16.27;62.26;101436.00;4861024;29;20572;-63
2022/01/02 03:12:45;;;;;;;5.87;4.57;;;13.90;82.20;;;16.34;62.34;101435.19;4860614;29;20247;-63
2022/01/02 03:15:31;;;;;;;7.23;5.37;;;13.80;82.30;;;16.34;62.62;101435.19;4861254;29;20687;-63
2022/01/02 03:18:17;;;;;;;4.60;3.80;;;13.90;82.40;;;16.37;62.29;101434.81;4861409;29;20212;-63
2022/01/02 03:21:03;;;;;;;5.50;3.77;;;13.90;82.40;;;16.43;62.38;101420.75;4861204;29;20247;-63
2022/01/02 03:23:49;;;;;;;7.90;5.13;;;13.90;82.50;;;16.48;62.11;101415.66;4860679;29;20234;-63
2022/01/02 03:26:35;;;;;;;6.97;4.37;;;13.90;82.40;;;16.49;62.01;101404.84;4861003;29;20309;-63
2022/01/02 03:29:22;;;;;;;7.30;5.03;;;14.00;82.40;;;16.48;61.95;101394.41;4861255;29;20215;-63
2022/01/02 03:32:09;;;;;;;9.10;5.37;;;14.00;82.40;;;16.47;62.26;101385.63;4860919;29;20236;-63
2022/01/02 03:34:55;;;;;;;4.83;4.10;;;14.00;82.30;;;16.45;62.12;101373.56;4860659;29;20312;-63
2022/01/02 03:37:41;;;;;;;5.77;4.90;;;14.00;82.20;;;16.42;62.37;101368.63;4861015;29;20230;-63
2022/01/02 03:40:28;;;;;;;5.80;4.60;;;14.00;82.30;;;16.38;62.49;101364.72;4860638;29;20663;-63
2022/01/02 03:43:13;;;;;;;7.37;5.43;;;14.00;82.20;;;16.33;62.64;101348.56;4860364;29;20346;-63
2022/01/02 03:46:04;;;;;;;5.93;4.80;;;14.00;82.20;;;16.30;62.45;101354.25;4861392;29;20286;-63
2022/01/02 03:48:50;;;;;;;8.17;4.67;;;13.90;82.20;;;16.25;62.55;101344.22;4860996;29;20223;-63
2022/01/02 03:51:36;;;;;;;5.60;4.80;;;13.90;82.10;;;16.28;62.57;101341.97;4861606;29;20252;-64
2022/01/02 03:54:22;;;;;;;5.97;5.07;;;13.90;82.30;;;16.31;62.47;101334.66;4860649;29;20234;-62
2022/01/02 03:57:07;;;;;;;5.77;4.10;;;13.90;83.10;;;16.35;62.60;101325.25;4860670;29;20345;-63
2022/01/02 03:59:53;;;;;;;6.17;4.93;;;13.90;82.50;;;16.41;62.52;101335.09;4860615;29;20211;-63
2022/01/02 04:02:40;;;;;;;6.23;4.80;;;13.90;82.50;;;16.44;62.15;101324.91;4841834;29;20212;-63
2022/01/02 04:05:27;;;;;;;6.93;5.30;;;13.90;82.60;;;16.48;62.31;101322.66;4842516;29;20193;-62
2022/01/02 04:08:13;;;;;;;8.57;4.53;;;13.90;82.60;;;16.49;62.27;101316.34;4842194;29;20306;-63
2022/01/02 04:10:58;;;;;;;7.27;5.27;;;14.00;82.50;;;16.48;62.14;101302.22;4842602;29;20216;-63
2022/01/02 04:13:44;;;;;;;8.50;5.33;;;14.00;82.50;;;16.46;62.16;101292.81;4841189;29;20705;-61
2022/01/02 04:16:29;;;;;;;6.93;4.90;;;14.00;82.30;;;16.43;62.08;101290.53;4842626;29;20220;-63
2022/01/02 04:19:17;;;;;;;5.17;3.93;;;14.00;82.30;;;16.44;62.35;101292.19;4845749;29;20555;-63
2022/01/02 04:22:03;;;;;;;7.60;4.97;;;13.90;82.20;;;16.48;61.95;101290.75;4845901;29;20281;-63
2022/01/02 04:24:49;;;;;;;5.93;5.07;;;14.00;82.30;;;16.49;61.83;101290.59;4845567;29;20224;-63
2022/01/02 04:27:35;;;;;;;9.03;5.57;;;14.00;82.40;;;16.49;62.06;101289.75;4846020;29;20212;-63
2022/01/02 04:30:21;;;;;;;6.40;4.70;;;14.00;82.30;;;16.48;61.88;101277.47;4845910;29;20262;-63
2022/01/02 04:33:07;;;;;;;6.07;5.00;;;14.00;82.20;;;16.46;61.87;101274.19;4844994;29;20228;-63
2022/01/02 04:35:54;;;;;;;7.20;5.20;;;14.00;82.20;;;16.47;61.95;101286.47;4863244;29;20223;-63
2022/01/02 04:38:42;;;;;;;7.47;5.83;;;14.00;82.20;;;16.43;62.12;101256.81;4864046;29;20219;-63
2022/01/02 04:41:27;;;;;;;11.33;5.27;;;14.00;82.10;;;16.43;62.02;101253.34;4863896;29;20211;-63
2022/01/02 04:44:13;;;;;;;5.67;4.93;;;14.00;82.00;;;16.43;62.17;101250.66;4863228;29;20231;-63
2022/01/02 04:46:58;;;;;;;5.33;4.33;;;14.00;82.00;;;16.44;62.00;101241.69;4845388;29;20232;-61
2022/01/02 04:49:44;;;;;;;7.33;5.10;;;14.00;82.00;;;16.42;62.03;101241.91;4845087;29;20219;-63
2022/01/02 04:52:31;;;;;;;7.63;5.17;;;14.00;81.90;;;16.39;62.16;101230.84;4862526;29;20526;-63
2022/01/02 04:55:18;;;;;;;6.73;4.77;;;14.00;81.90;;;16.40;62.10;101221.88;4863366;29;20365;-63
2022/01/02 04:58:05;;;;;;;7.87;4.77;;;14.00;81.90;;;16.44;62.22;101207.97;4863608;29;20217;-63
2022/01/02 05:00:50;;;;;;;6.50;4.80;;;14.00;82.00;;;16.46;62.20;101211.25;4862694;29;20211;-62
2022/01/02 05:03:36;;;;;;;5.20;4.50;;;14.00;82.00;;;16.48;62.06;101213.69;4844080;29;20307;-63
2022/01/02 05:06:22;;;;;;;9.07;5.00;;;14.00;82.00;;;16.46;62.24;101210.41;4860965;29;20220;-62
2022/01/02 05:09:09;;;;;;;6.10;4.87;;;14.00;82.10;;;16.41;62.19;101207.53;4862977;29;20289;-62
2022/01/02 05:11:54;;;;;;;6.23;3.93;;;14.00;82.00;;;16.39;62.36;101202.44;4863166;29;20700;-62
2022/01/02 05:14:40;;;;;;;6.67;4.27;;;14.00;82.10;;;16.43;62.17;101201.00;4862904;29;20231;-63
2022/01/02 05:17:26;;;;;;;6.50;5.40;;;14.00;82.20;;;16.46;62.27;101207.75;4862840;29;20227;-63
2022/01/02 05:20:12;;;;;;;5.73;4.00;;;14.00;82.10;;;16.48;62.30;101192.44;4863372;29;20287;-62
2022/01/02 05:22:58;;;;;;;7.50;4.30;;;14.00;82.20;;;16.54;62.40;101175.72;4862936;29;20311;-63
2022/01/02 05:25:45;;;;;;;8.63;4.57;;;14.00;82.20;;;16.56;62.00;101181.66;4862895;29;20689;-61
2022/01/02 05:28:31;;;;;;;6.60;4.57;;;14.10;82.20;;;16.56;61.87;101181.66;4861622;29;20261;-63
2022/01/02 05:31:17;;;;;;;5.87;4.80;;;14.10;82.10;;;16.55;61.97;101172.84;4863009;29;20204;-63
2022/01/02 05:34:03;;;;;;;5.23;3.80;;;14.10;82.10;;;16.57;62.25;101185.97;4861019;29;20231;-63
2022/01/02 05:36:48;;;;;;;8.17;4.57;;;14.10;82.00;;;16.62;61.92;101172.84;4862970;29;20223;-63
2022/01/02 05:39:35;;;;;;;5.13;3.93;;;14.10;82.10;;;16.64;61.97;101168.97;4862986;29;20231;-63
2022/01/02 05:42:22;;;;;;;8.57;4.53;;;14.20;82.20;;;16.66;62.00;101163.47;4862849;29;20221;-63
2022/01/02 05:45:09;;;;;;;11.63;4.57;;;14.20;82.20;;;16.64;62.00;101176.16;4863036;29;20280;-63
2022/01/02 05:47:55;;;;;;;7.00;4.10;;;14.20;82.20;;;16.61;61.93;101164.09;4862976;29;20264;-63
2022/01/02 05:50:41;;;;;;;5.60;3.77;;;14.20;82.10;;;16.62;62.13;101154.25;4862003;29;20231;-64
2022/01/02 05:53:28;;;;;;;7.37;3.97;;;14.20;82.10;;;16.64;61.96;101153.03;4862661;29;20696;-63
2022/01/02 05:56:14;;;;;;;6.03;3.57;;;14.20;82.10;;;16.69;61.96;101155.06;4862717;29;20199;-63
2022/01/02 05:59:01;;;;;;;9.00;4.90;;;14.20;82.20;;;16.72;62.22;101149.34;4862562;29;20214;-63
2022/01/02 06:01:47;;;;;;;6.40;4.30;;;14.20;82.20;;;16.74;61.85;101160.59;4862552;29;20295;-65
2022/01/02 06:04:33;;;;;;;5.20;3.67;;;14.20;82.20;;;16.77;62.16;101155.72;4862192;29;20725;-63
2022/01/02 06:07:19;;;;;;;7.13;3.83;;;14.30;82.30;;;16.78;61.89;101156.53;4860471;29;20573;-62
2022/01/02 06:10:06;;;;;;;6.37;3.40;;;14.30;82.30;;;16.84;61.93;101156.53;4862262;29;20688;-63
2022/01/02 06:12:51;;;;;;;6.83;3.80;;;14.30;82.40;;;16.91;61.91;101145.88;4861432;29;20235;-63
2022/01/02 06:15:39;;;;;;;8.50;4.10;;;14.30;82.40;;;16.96;61.63;101138.09;4861945;29;20534;-63
2022/01/02 06:18:25;;;;;;;8.80;4.63;;;14.40;82.60;;;16.97;61.88;101145.06;4862107;29;20207;-63
2022/01/02 06:21:10;;;;;;;6.57;3.60;;;14.40;82.70;;;16.96;62.05;101130.13;4862499;29;20260;-64
2022/01/02 06:23:56;;;;;;;9.30;3.80;;;14.40;82.60;;;16.98;62.06;101130.72;4860800;29;20227;-63
2022/01/02 06:26:41;;;;;;;7.07;3.43;;;14.50;82.70;;;17.02;62.04;101121.31;4862148;29;20371;-63
2022/01/02 06:29:27;;;;;;;8.27;3.80;;;14.50;82.70;;;17.07;62.04;101116.19;4861932;29;20256;-64
2022/01/02 06:32:14;;;;;;;7.40;3.17;;;14.50;82.80;;;17.13;61.97;101111.88;4862128;29;20726;-64
2022/01/02 06:35:00;;;;;;;6.93;3.60;;;14.50;82.80;;;17.16;61.70;101112.31;4861555;29;20247;-61
2022/01/02 06:37:46;;;;;;;5.90;3.67;;;14.60;82.90;;;17.23;61.62;101125.59;4861652;29;20215;-64
2022/01/02 06:40:32;;;;;;;6.73;3.83;;;14.60;82.90;;;17.17;61.94;101113.09;4860717;29;20223;-64
2022/01/02 06:43:19;;;;;;;7.00;3.93;;;14.60;83.00;;;17.16;62.13;101117.63;4860332;29;20277;-64
2022/01/02 06:46:05;;;;;;;6.90;3.00;;;14.70;82.90;;;17.22;62.01;101116.78;4861677;29;20211;-64
2022/01/02 06:48:52;;;;;;;5.57;3.43;;;14.70;82.90;;;17.29;61.71;101117.56;4861631;29;20253;-64
2022/01/02 06:51:58;;;;;;;7.47;3.37;;;14.70;83.00;;;17.34;61.90;101115.09;4861501;29;20211;-64
2022/01/02 06:54:43;;;;;;;5.70;3.20;;;14.70;83.00;;;17.40;61.57;101114.25;4860931;29;20800;-63
2022/01/02 06:57:29;;;;;;;9.03;3.10;;;14.70;83.40;;;17.45;61.69;101111.78;4861282;29;20570;-64
2022/01/02 07:00:15;;;;;;;8.13;3.40;;;14.70;83.50;;;17.43;61.97;101107.69;4861154;29;20215;-64
2022/01/02 07:03:00;;;;;;;5.93;3.40;;;14.80;83.60;;;17.39;62.05;101115.31;4861135;29;20288;-63
2022/01/02 07:05:48;;;;;;;9.67;3.60;;;14.80;83.80;;;17.35;62.28;101097.31;4861270;29;20689;-64
2022/01/02 07:08:33;;;;;;;5.23;2.90;;;14.80;84.00;;;17.35;62.52;101095.44;4861489;29;20215;-64
2022/01/02 07:11:19;;;;;;;6.00;3.10;;;14.80;84.20;;;17.35;62.56;101094.66;4861198;29;20215;-64
2022/01/02 07:14:05;;;;;;;5.57;2.70;;;14.80;84.20;;;17.33;62.94;101081.53;4860535;29;20292;-64
2022/01/02 07:16:51;;;;;;;6.90;2.80;;;14.80;84.20;;;17.34;63.01;101090.34;4861253;29;20257;-64
2022/01/02 07:19:36;;;;;;;6.37;2.93;;;14.80;84.20;;;17.34;63.06;101072.53;4861124;29;20215;-64
2022/01/02 07:22:23;;;;;;;6.73;3.30;;;14.80;84.30;;;17.38;62.86;101079.06;4860904;29;20212;-65
2022/01/02 07:25:10;;;;;;;5.83;3.33;;;14.80;84.50;;;17.41;63.03;101073.31;4861168;29;20301;-64
2022/01/02 07:27:56;;;;;;;5.67;3.30;;;14.90;84.60;;;17.44;62.76;101078.22;4861248;29;20223;-64
2022/01/02 07:30:41;;;;;;;4.90;3.23;;;14.80;84.70;;;17.42;62.96;101066.97;4860466;29;20535;-64
2022/01/02 07:33:28;;;;;;;5.63;3.47;;;14.80;84.60;;;17.39;62.93;101066.56;4860883;29;20230;-64
2022/01/02 07:36:13;;;;;;;6.23;3.27;;;14.80;84.60;;;17.37;62.94;101060.66;4861158;29;20211;-64
2022/01/02 07:39:00;;;;;;;6.27;3.30;;;14.80;84.40;;;17.40;63.09;101060.25;4861507;29;20295;-64
2022/01/02 07:41:46;;;;;;;5.23;3.10;;;14.80;84.40;;;17.38;62.98;101052.44;4860867;29;20212;-63
2022/01/02 07:44:32;;;;;;;5.27;3.10;;;14.80;84.20;;;17.39;62.77;101040.78;4860481;29;20230;-63
2022/01/02 07:47:18;;;;;;;8.50;3.50;;;14.90;84.20;;;17.35;63.12;101030.78;4860520;29;20223;-64
2022/01/02 07:50:05;;;;;;;7.00;3.50;;;14.90;84.00;;;17.32;62.80;101024.03;4861135;29;20215;-64
2022/01/02 07:52:52;;;;;;;5.20;2.83;;;14.90;83.90;;;17.28;62.98;101009.50;4863197;29;20251;-63
2022/01/02 07:55:39;;;;;;;6.23;3.67;;;14.90;83.70;;;17.27;63.10;101007.88;4864859;29;20534;-63
2022/01/02 07:58:30;;;;;;;8.07;3.07;;;14.90;84.30;;;17.28;62.78;101004.19;4865290;29;20320;-64
2022/01/02 08:01:16;;;;;;;6.97;3.70;;;14.90;83.50;;;17.26;62.83;100992.94;4864162;29;20219;-64
2022/01/02 08:04:02;;;;;;;7.83;3.63;;;14.80;83.40;;;17.25;62.89;100993.16;4863708;29;20251;-64
2022/01/02 08:06:48;;;;;;;6.83;3.90;;;14.80;83.30;;;17.25;62.90;100983.34;4864332;29;20344;-64
2022/01/02 08:09:34;;;;;;;7.90;3.60;;;14.90;83.20;;;17.26;62.78;100974.31;4864834;29;20629;-64
2022/01/02 08:12:21;;;;;;;6.13;3.67;;;14.90;83.20;;;17.26;62.63;100960.19;4864278;29;20690;-64
2022/01/02 08:15:08;;;;;;;7.07;3.30;;;14.80;83.10;;;17.27;62.42;100960.00;4863995;29;20593;-64
2022/01/02 08:17:55;;;;;;;4.60;3.33;;;14.80;83.10;;;17.30;62.60;100951.59;4864034;29;20211;-64
2022/01/02 08:20:41;;;;;;;6.70;3.77;;;14.80;83.10;;;17.31;62.36;100944.41;4863841;29;20211;-64
2022/01/02 08:23:27;;;;;;;7.37;3.57;;;14.80;82.80;;;17.29;62.25;100941.97;4864215;29;20307;-64
2022/01/02 08:26:33;;;;;;;5.73;3.40;;;14.90;82.60;;;17.26;62.18;100941.56;4864853;29;20216;-64
2022/01/02 08:29:20;;;;;;;7.10;3.63;;;14.90;82.30;;;17.26;62.16;100942.38;4864151;29;20561;-64
2022/01/02 08:32:06;;;;;;;8.27;3.90;;;14.90;82.20;;;17.31;62.07;100918.63;4863741;29;20216;-64
2022/01/02 08:34:51;;;;;;;7.07;3.80;;;14.90;82.20;;;17.39;61.65;100922.88;4863580;29;20227;-63
2022/01/02 08:37:37;;;;;;;7.93;3.40;;;14.90;82.10;;;17.40;61.50;100912.00;4862805;29;20219;-64
2022/01/02 08:40:23;;;;;;;5.07;3.47;;;14.90;81.80;;;17.41;61.33;100910.16;4864309;29;20212;-64
2022/01/02 08:43:10;;;;;;;6.87;3.57;;;14.90;81.40;;;17.41;61.22;100913.66;4863201;29;20685;-64
2022/01/02 08:45:57;;;;;;;7.37;3.50;;;14.90;81.40;;;17.43;60.93;100895.63;4863375;29;20211;-63
2022/01/02 08:48:43;;;;;;;7.47;3.40;;;15.00;81.20;;;17.47;60.85;100904.00;4862545;29;20279;-63
2022/01/02 08:51:29;;;;;;;5.43;2.80;;;15.00;81.10;;;17.55;60.95;100893.94;4845425;29;20678;-64
2022/01/02 08:54:15;;;;;;;6.47;3.73;;;15.00;81.20;;;17.64;60.54;100877.69;4847356;29;20307;-64
2022/01/02 08:57:02;;;;;;;4.97;3.40;;;15.00;81.10;;;17.60;60.40;100874.63;4864231;29;20279;-64
2022/01/02 08:59:48;;;;;;;6.40;3.23;;;15.10;80.90;;;17.57;60.63;100869.75;4863592;29;20215;-64
2022/01/02 09:02:40;;;;;;;7.50;3.73;;;15.10;80.70;;;17.53;60.66;100872.03;4863249;29;20211;-64
2022/01/02 09:05:27;;;;;;;4.90;3.43;;;15.10;80.60;;;17.51;60.58;100876.75;4863007;29;20223;-64
2022/01/02 09:08:13;;;;;;;7.80;4.40;;;15.10;80.50;;;17.47;60.67;100862.19;4863299;29;20227;-64
2022/01/02 09:10:58;;;;;;;4.77;3.30;;;15.10;80.30;;;17.49;60.60;100862.00;4862903;29;20252;-64
2022/01/02 09:13:44;;;;;;;5.23;2.70;;;15.10;80.20;;;17.53;60.71;100864.06;4844599;29;20252;-64
2022/01/02 09:16:30;;;;;;;4.63;2.40;;;15.20;80.30;;;17.62;60.21;100855.78;4844506;29;20236;-64
2022/01/02 09:19:17;;;;;;;5.50;2.90;;;15.20;80.30;;;17.62;60.23;100851.28;4844832;29;20282;-64
2022/01/02 09:22:04;;;;;;;5.70;3.03;;;15.20;80.80;;;17.58;60.29;100850.91;4847775;29;20222;-64
2022/01/02 09:24:52;;;;;;;6.00;2.97;;;15.20;79.90;;;17.56;60.55;100855.63;4863290;29;20231;-64
2022/01/02 09:27:39;;;;;;;5.27;2.93;;;15.20;80.00;;;17.50;60.70;100853.78;4862817;29;20583;-64
2022/01/02 09:30:25;;;;;;;5.53;2.70;;;15.20;80.90;;;17.45;61.03;100853.63;4861829;29;20746;-64
2022/01/02 09:33:11;;;;;;;4.70;2.50;;;15.20;80.30;;;17.43;61.12;100858.34;4862620;29;20276;-64
2022/01/02 09:35:58;;;;;;;4.97;3.40;;;15.20;80.40;;;17.42;61.04;100855.91;4862486;29;20226;-64
2022/01/02 09:38:44;;;;;;;4.77;2.90;;;15.20;80.30;;;17.42;61.17;100867.34;4861315;29;20268;-64
2022/01/02 09:41:31;;;;;;;4.23;2.70;;;15.10;80.40;;;17.40;61.17;100861.44;4862207;29;20208;-64
2022/01/02 09:44:17;;;;;;;4.17;2.57;;;15.20;80.50;;;17.43;61.21;100858.34;4862137;29;20299;-64
2022/01/02 09:47:07;;;;;;;5.87;3.40;;;15.10;80.60;;;17.42;61.11;100850.59;4862786;29;20218;-64
2022/01/02 09:49:53;;;;;;;6.47;3.03;;;15.10;80.70;;;17.40;61.28;100845.47;4862535;29;20200;-63
2022/01/02 09:52:40;;;;;;;4.40;3.00;;;15.10;80.80;;;17.38;61.24;100855.53;4861876;29;20215;-64
2022/01/02 09:55:07;;;;;;;4.13;2.80;;;15.10;80.80;;;17.32;61.29;100845.75;4861477;29;20690;-61
2022/01/02 09:57:35;;;;;;;5.77;2.80;;;15.10;80.70;;;17.36;61.43;100823.00;4861079;29;20608;-64
2022/01/02 10:00:04;;;;;;;6.93;3.13;;;15.10;80.80;;;17.40;61.26;100826.06;4862065;29;20195;-62
2022/01/02 10:02:59;;;;;;;6.77;3.33;;;15.10;81.00;;;17.31;61.42;100828.16;4861232;29;20689;-64
2022/01/02 10:05:29;;;;;;;5.67;2.63;;;15.10;80.80;;;17.34;61.52;100822.41;4862078;29;20199;-64
2022/01/02 10:07:57;;;;;;;6.37;2.73;;;15.10;80.70;;;17.39;61.32;100819.09;4861900;29;20211;-63
2022/01/02 10:10:34;;;;;;;4.83;2.73;;;15.10;80.70;;;17.41;61.35;100817.03;4861545;29;20275;-64
2022/01/02 10:13:03;;;;;;;5.80;2.90;;;15.20;80.90;;;17.51;60.99;100812.03;4861291;29;20209;-64
2022/01/02 10:15:32;;;;;;;6.60;3.17;;;15.10;81.50;;;17.57;61.00;100809.34;4861013;29;20225;-63
2022/01/02 10:18:04;;;;;;;8.37;4.07;;;15.20;80.80;;;17.63;60.80;100814.81;4861699;29;20197;-64
2022/01/02 10:20:35;;;;;;;6.23;2.90;;;15.20;80.60;;;17.69;60.73;100819.25;4861421;29;20203;-64
2022/01/02 10:23:15;;;;;;;5.73;2.77;;;15.20;80.60;;;17.76;60.37;100822.72;4860149;29;20208;-64
2022/01/02 10:25:52;;;;;;;7.97;3.53;;;15.30;80.60;;;17.84;60.01;100822.41;4861674;29;20197;-64
2022/01/02 10:28:35;;;;;;;6.43;3.23;;;15.30;80.30;;;17.92;60.01;100808.81;4861566;29;20193;-64
2022/01/02 10:31:08;;;;;;;5.50;3.20;;;15.30;80.50;;;18.00;59.47;100805.84;4860768;29;20564;-64
2022/01/02 10:33:51;;;;;;;6.40;3.03;;;15.30;80.40;;;18.02;59.29;100787.78;4861387;29;20599;-64
2022/01/02 10:36:27;;;;;;;5.53;3.07;;;15.30;80.40;;;18.03;59.14;100784.09;4860807;29;20231;-64
2022/01/02 10:39:13;;;;;;;5.50;2.97;;;15.40;80.00;;;18.01;58.80;100775.53;4861498;29;20196;-64
2022/01/02 10:41:43;;;;;;;5.73;3.00;;;15.40;79.60;;;18.08;59.27;100760.28;4861037;29;20279;-64
2022/01/02 10:44:29;;;;;;;6.00;2.87;;;15.40;79.50;;;18.05;58.77;100755.38;4860646;29;20232;-64
2022/01/02 10:47:14;;;;;;;5.40;2.70;;;15.50;79.30;;;18.08;59.01;100750.44;4861352;29;20204;-63
2022/01/02 10:49:52;;;;;;;6.60;3.33;;;15.50;78.90;;;18.15;58.73;100739.69;4860022;29;20291;-64
2022/01/02 10:52:24;;;;;;;7.37;3.30;;;15.50;79.00;;;18.18;58.30;100744.59;4860780;29;20249;-65
2022/01/02 10:54:55;;;;;;;4.03;3.17;;;15.50;78.50;;;18.20;58.26;100742.50;4860800;29;20220;-64
2022/01/02 10:57:28;;;;;;;5.63;3.07;;;15.60;78.40;;;18.20;58.23;100738.00;4860789;29;20205;-66
2022/01/02 10:59:57;;;;;;;6.80;3.30;;;15.60;78.10;;;18.21;57.92;100717.47;4859067;29;20192;-63
2022/01/02 11:02:27;;;;;;;10.10;2.93;;;15.60;78.00;;;18.26;57.65;100714.94;4855504;29;20245;-63
2022/01/02 11:04:59;;;;;;;6.97;3.20;;;15.60;77.60;;;18.26;57.48;100709.63;4843523;29;20682;-65
2022/01/02 11:07:37;;;;;;;5.87;3.10;;;15.70;77.50;;;18.28;57.61;100708.34;4842223;29;20630;-63
2022/01/02 11:10:09;;;;;;;10.63;3.20;;;15.70;77.30;;;18.30;57.14;100710.00;4848933;29;20595;-63
2022/01/02 11:12:38;;;;;;;4.13;2.53;;;15.70;76.90;;;18.36;57.48;100709.06;4861305;29;20200;-65
2022/01/02 11:15:08;;;;;;;6.87;3.20;;;15.70;77.00;;;18.42;57.16;100703.69;4860776;29;20330;-65
2022/01/02 11:17:36;;;;;;;8.57;3.27;;;15.70;76.90;;;18.45;56.91;100695.22;4860953;29;20235;-64
2022/01/02 11:20:06;;;;;;;6.80;3.23;;;15.80;76.90;;;18.48;56.69;100700.13;4859822;29;20189;-64
2022/01/02 11:22:42;;;;;;;7.47;3.70;;;15.80;76.70;;;18.46;56.22;100691.53;4860219;29;20204;-64
2022/01/02 11:25:22;;;;;;;7.73;3.20;;;15.80;76.10;;;18.46;56.38;100688.88;4860655;29;20196;-64
2022/01/02 11:27:58;;;;;;;6.57;2.90;;;15.80;76.00;;;18.49;56.09;100679.63;4856552;29;20295;-65
2022/01/02 11:30:41;;;;;;;5.10;2.80;;;15.80;76.20;;;18.48;56.55;100665.47;4858547;29;20317;-64